DABC/CZL METAR and TAF weather

Enter ICAO airport designator
Station Type Date Time Source
DABC METAR 2018/01/22 20:00 UTC NOAA

DABC 222000Z 00000KT CAVOK 12/06 Q1025


Station Type Date Time Source
DABC Decoded METAR 2018/01/22 20:00 UTC NOAA

Constantine, Algeria (DABC) 36-17N 006-37E 694M
Jan 22, 2018 - 03:00 PM EST / 2018.01.22 2000 UTC
Wind: Calm:0
Visibility: greater than 7 mile(s):0
Temperature: 53 F (12 C)
Dew Point: 42 F (6 C)
Relative Humidity: 66%
Pressure (altimeter): 30.27 in. Hg (1025 hPa)
ob: DABC 222000Z 00000KT CAVOK 12/06 Q1025
cycle: 20

Station Type Date Time Source
DABC TAF 2018/01/22 18:33 UTC NOAA

TAF DABC 221700Z 2218/2318 31006KT 9999 FEW033
BECMG 2221/2223 VRB02KT


Example: see airport list